createdAt,value
2022-08-22T00:02:24.438Z,100363.53
2022-08-22T00:02:42.589Z,100347.66
2022-08-22T00:03:07.176Z,100336.50
2022-08-22T00:06:07.224Z,100358.31
2022-08-22T00:09:35.689Z,100349.50
2022-08-22T00:12:49.591Z,100356.63
2022-08-22T00:16:16.281Z,100358.31
2022-08-22T00:19:18.464Z,100350.88
2022-08-22T00:22:39.195Z,100350.88
2022-08-22T00:26:03.143Z,100362.72
2022-08-22T00:29:09.247Z,100342.59
2022-08-22T00:32:29.734Z,100349.22
2022-08-22T00:35:42.910Z,100354.97
2022-08-22T00:39:06.626Z,100355.25
2022-08-22T00:42:32.157Z,100356.09
2022-08-22T00:45:49.288Z,100352.50
2022-08-22T00:48:58.219Z,100346.91
2022-08-22T00:52:12.759Z,100348.84
2022-08-22T00:55:53.741Z,100351.59
2022-08-22T00:59:23.202Z,100350.50
2022-08-22T01:02:53.445Z,100362.09
2022-08-22T01:06:16.486Z,100365.69
2022-08-22T01:10:04.198Z,100357.16
2022-08-22T01:13:06.218Z,100358.00
2022-08-22T01:16:16.926Z,100358.00
2022-08-22T01:19:37.730Z,100358.84
2022-08-22T01:22:54.825Z,100362.41
2022-08-22T01:26:25.705Z,100362.41
2022-08-22T01:29:36.259Z,100366.78
2022-08-22T01:32:42.937Z,100374.22
2022-08-22T01:36:21.518Z,100365.97
2022-08-22T01:39:47.792Z,100367.06
2022-08-22T01:43:09.205Z,100365.41
2022-08-22T01:46:43.525Z,100358.00
2022-08-22T01:49:56.205Z,100358.75
2022-08-22T01:53:26.099Z,100367.31
2022-08-22T01:56:42.947Z,100368.69
2022-08-22T01:59:49.574Z,100362.88
2022-08-22T02:03:02.238Z,100368.06
2022-08-22T02:06:14.634Z,100364.75
2022-08-22T02:09:32.718Z,100375.84
2022-08-22T02:13:02.635Z,100371.44
2022-08-22T02:16:18.876Z,100363.94
2022-08-22T02:19:34.185Z,100361.75
2022-08-22T02:22:58.071Z,100369.53
2022-08-22T02:26:02.908Z,100370.34
2022-08-22T02:29:11.539Z,100364.50
2022-08-22T02:32:28.004Z,100371.44
2022-08-22T02:35:42.494Z,100365.63
2022-08-22T02:39:32.342Z,100382.44
2022-08-22T02:42:50.321Z,100383.47
2022-08-22T02:46:12.327Z,100368.88
2022-08-22T02:49:23.255Z,100384.56
2022-08-22T02:52:35.376Z,100380.19
2022-08-22T02:56:22.451Z,100378.50
2022-08-22T02:59:27.457Z,100382.09
2022-08-22T03:02:42.252Z,100379.59
2022-08-22T03:05:44.501Z,100388.66
2022-08-22T03:09:14.926Z,100394.16
2022-08-22T03:12:39.412Z,100389.50
2022-08-22T03:15:59.640Z,100392.22
2022-08-22T03:19:18.746Z,100399.66
2022-08-22T03:22:24.052Z,100391.63
2022-08-22T03:25:42.024Z,100401.03
2022-08-22T03:28:59.956Z,100388.88
2022-08-22T03:32:15.952Z,100401.53
2022-08-22T03:35:54.039Z,100397.13
2022-08-22T03:39:17.124Z,100387.19
2022-08-22T03:42:29.102Z,100391.56
2022-08-22T03:45:44.086Z,100396.78
2022-08-22T03:48:57.132Z,100392.63
2022-08-22T03:53:03.537Z,100397.91
2022-08-22T03:56:24.327Z,100416.59
2022-08-22T04:00:04.205Z,100419.88
2022-08-22T04:03:55.248Z,100418.78
2022-08-22T04:07:28.088Z,100423.75
2022-08-22T04:10:51.837Z,100424.34
2022-08-22T04:13:56.709Z,100421.59
2022-08-22T04:17:04.581Z,100426.28
2022-08-22T04:20:38.645Z,100424.34
2022-08-22T04:24:02.805Z,100427.63
2022-08-22T04:27:15.241Z,100423.75
2022-08-22T04:30:23.555Z,100423.22
2022-08-22T04:33:32.329Z,100425.13
2022-08-22T04:36:50.795Z,100417.41
2022-08-22T04:39:59.975Z,100410.25
2022-08-22T04:43:15.566Z,100412.75
2022-08-22T04:46:41.947Z,100418.84
2022-08-22T04:49:51.978Z,100410.31
2022-08-22T04:53:14.007Z,100410.72
2022-08-22T04:56:16.043Z,100434.00
2022-08-22T04:59:19.534Z,100432.88
2022-08-22T05:02:27.821Z,100429.06
2022-08-22T05:05:34.045Z,100425.91
2022-08-22T05:08:39.849Z,100424.28
2022-08-22T05:11:43.223Z,100424.59
2022-08-22T05:14:56.309Z,100424.59
2022-08-22T05:18:06.644Z,100430.47
2022-08-22T05:21:13.975Z,100434.03
2022-08-22T05:24:46.566Z,100442.09
2022-08-22T05:27:56.256Z,100438.22
2022-08-22T05:31:00.171Z,100457.31
2022-08-22T05:34:11.599Z,100438.59
2022-08-22T05:37:44.861Z,100452.28
2022-08-22T05:40:58.852Z,100446.88
2022-08-22T05:44:02.731Z,100446.19
2022-08-22T05:47:04.847Z,100455.13
2022-08-22T05:50:18.526Z,100452.00
2022-08-22T05:53:39.048Z,100450.44
2022-08-22T05:56:51.605Z,100445.16
2022-08-22T06:00:01.186Z,100453.09
2022-08-22T06:03:16.470Z,100458.78
2022-08-22T06:06:20.443Z,100447.16
2022-08-22T06:09:37.162Z,100442.19
2022-08-22T06:12:45.293Z,100450.97
2022-08-22T06:15:59.719Z,100429.78
2022-08-22T06:19:04.908Z,100443.00
2022-08-22T06:22:28.625Z,100449.38
2022-08-22T06:25:39.045Z,100446.63
2022-08-22T06:28:54.677Z,100455.72
2022-08-22T06:32:02.556Z,100464.28
2022-08-22T06:35:11.610Z,100463.19
2022-08-22T06:38:15.276Z,100451.59
2022-08-22T06:41:22.306Z,100461.53
2022-08-22T06:44:30.223Z,100465.91
2022-08-22T06:47:37.335Z,100465.63
2022-08-22T06:50:43.838Z,100463.19
2022-08-22T06:53:50.426Z,100465.91
2022-08-22T06:56:55.703Z,100470.59
2022-08-22T07:00:03.269Z,100450.75
2022-08-22T07:03:20.563Z,100470.63
2022-08-22T07:06:29.993Z,100456.84
2022-08-22T07:09:35.658Z,100466.03
2022-08-22T07:12:39.254Z,100453.03
2022-08-22T07:15:43.004Z,100469.31
2022-08-22T07:18:56.879Z,100469.09
2022-08-22T07:22:01.556Z,100475.41
2022-08-22T07:25:20.923Z,100456.44
2022-08-22T07:28:51.520Z,100466.03
2022-08-22T07:32:17.242Z,100471.31
2022-08-22T07:35:20.895Z,100466.13
2022-08-22T07:38:31.674Z,100463.94
2022-08-22T07:41:48.142Z,100456.50
2022-08-22T07:45:17.886Z,100470.88
2022-08-22T07:49:08.983Z,100465.66
2022-08-22T07:52:13.930Z,100454.66
2022-08-22T07:55:20.746Z,100451.91
2022-08-22T07:58:27.476Z,100458.81
2022-08-22T08:01:30.177Z,100453.06
2022-08-22T08:04:40.081Z,100457.81
2022-08-22T08:07:45.737Z,100460.56
2022-08-22T08:10:50.938Z,100441.81
2022-08-22T08:13:57.995Z,100457.59
2022-08-22T08:17:30.144Z,100444.13
2022-08-22T08:20:38.945Z,100442.50
2022-08-22T08:23:46.341Z,100442.53
2022-08-22T08:27:12.755Z,100435.38
2022-08-22T08:30:19.615Z,100443.63
2022-08-22T08:33:26.972Z,100442.53
2022-08-22T08:36:32.111Z,100451.94
2022-08-22T08:39:39.445Z,100445.38
2022-08-22T08:43:30.887Z,100437.34
2022-08-22T08:46:55.674Z,100443.97
2022-08-22T08:50:16.287Z,100434.91
2022-08-22T08:53:43.365Z,100436.56
2022-08-22T08:57:00.162Z,100436.88
2022-08-22T09:00:12.373Z,100426.69
2022-08-22T09:03:30.536Z,100426.66
2022-08-22T09:07:01.168Z,100422.53
2022-08-22T09:10:33.270Z,100411.78
2022-08-22T09:14:07.018Z,100423.94
2022-08-22T09:17:23.694Z,100407.94
2022-08-22T09:20:56.022Z,100401.84
2022-08-22T09:24:23.242Z,100381.16
2022-08-22T09:27:49.827Z,100396.34
2022-08-22T09:31:23.067Z,100400.75
2022-08-22T09:34:56.774Z,100396.09
2022-08-22T09:38:19.906Z,100383.09
2022-08-22T09:41:53.260Z,100369.59
2022-08-22T09:45:11.990Z,100383.38
2022-08-22T09:48:34.774Z,100377.03
2022-08-22T09:52:14.569Z,100367.66
2022-08-22T09:55:40.046Z,100361.03
2022-08-22T09:59:03.172Z,100364.31
2022-08-22T10:02:16.997Z,100370.38
2022-08-22T10:05:40.457Z,100367.63
2022-08-22T10:09:05.484Z,100357.19
2022-08-22T10:12:19.728Z,100376.75
2022-08-22T10:15:39.363Z,100378.69
2022-08-22T10:18:52.872Z,100371.00
2022-08-22T10:22:39.535Z,100381.47
2022-08-22T10:25:48.363Z,100384.50
2022-08-22T10:29:16.416Z,100390.28
2022-08-22T10:32:31.096Z,100379.78
2022-08-22T10:35:51.914Z,100380.34
2022-08-22T10:38:58.116Z,100350.81
2022-08-22T10:42:28.165Z,100359.09
2022-08-22T10:45:37.737Z,100353.59
2022-08-22T10:48:58.730Z,100352.19
2022-08-22T10:52:15.272Z,100348.63
2022-08-22T10:55:28.268Z,100359.94
2022-08-22T10:58:35.212Z,100354.41
2022-08-22T11:01:53.643Z,100339.25
2022-08-22T11:05:10.721Z,100352.19
2022-08-22T11:08:34.775Z,100356.59
2022-08-22T11:11:39.748Z,100358.53
2022-08-22T11:14:59.695Z,100362.41
2022-08-22T11:18:24.630Z,100361.59
2022-08-22T11:21:54.466Z,100372.63
2022-08-22T11:25:15.344Z,100362.94
2022-08-22T11:28:55.356Z,100372.66
2022-08-22T11:32:07.938Z,100377.31
2022-08-22T11:35:35.575Z,100358.03
2022-08-22T11:39:06.537Z,100350.56
2022-08-22T11:42:49.814Z,100344.25
2022-08-22T11:45:57.255Z,100364.09
2022-08-22T11:49:13.315Z,100375.66
2022-08-22T11:52:17.923Z,100362.38
2022-08-22T11:55:41.330Z,100360.72
2022-08-22T11:58:56.363Z,100336.97
2022-08-22T12:02:08.965Z,100346.91
2022-08-22T12:05:26.146Z,100339.47
2022-08-22T12:08:37.052Z,100340.56
2022-08-22T12:12:16.980Z,100333.94
2022-08-22T12:15:37.468Z,100325.69
2022-08-22T12:18:53.001Z,100322.38
2022-08-22T12:22:28.886Z,100325.38
2022-08-22T12:25:59.321Z,100308.03
2022-08-22T12:29:45.076Z,100319.59
2022-08-22T12:33:31.751Z,100318.00
2022-08-22T12:37:03.649Z,100313.56
2022-08-22T12:40:36.407Z,100323.78
2022-08-22T12:43:42.822Z,100314.09
2022-08-22T12:47:03.224Z,100308.88
2022-08-22T12:50:25.229Z,100313.56
2022-08-22T12:53:49.199Z,100303.91
2022-08-22T12:56:52.275Z,100299.22
2022-08-22T13:00:17.354Z,100290.94
2022-08-22T13:03:32.515Z,100289.00
2022-08-22T13:06:37.863Z,100294.72
2022-08-22T13:09:46.254Z,100294.72
2022-08-22T13:12:58.522Z,100298.56
2022-08-22T13:16:07.503Z,100296.06
2022-08-22T13:19:46.618Z,100309.88
2022-08-22T13:22:49.300Z,100302.94
2022-08-22T13:26:33.172Z,100291.38
2022-08-22T13:29:47.050Z,100308.66
2022-08-22T13:32:53.221Z,100296.81
2022-08-22T13:36:01.230Z,100295.31
2022-08-22T13:39:13.540Z,100304.44
2022-08-22T13:42:30.031Z,100301.69
2022-08-22T13:45:36.263Z,100307.72
2022-08-22T13:48:51.480Z,100308.91
2022-08-22T13:52:14.432Z,100313.81
2022-08-22T13:55:35.397Z,100332.53
2022-08-22T13:58:39.025Z,100342.19
2022-08-22T14:02:07.823Z,100328.16
2022-08-22T14:05:33.203Z,100345.53
2022-08-22T14:08:45.722Z,100334.78
2022-08-22T14:11:56.278Z,100342.22
2022-08-22T14:15:03.548Z,100342.75
2022-08-22T14:18:16.002Z,100336.16
2022-08-22T14:21:40.632Z,100333.97
2022-08-22T14:24:55.758Z,100332.88
2022-08-22T14:28:09.479Z,100319.66
2022-08-22T14:31:14.430Z,100328.47
2022-08-22T14:34:17.575Z,100326.84
2022-08-22T14:37:25.144Z,100328.53
2022-08-22T14:40:35.571Z,100323.13
2022-08-22T14:43:49.621Z,100341.28
2022-08-22T14:46:59.518Z,100343.22
2022-08-22T14:50:11.182Z,100339.09
2022-08-22T14:53:25.220Z,100318.16
2022-08-22T14:56:30.136Z,100327.81
2022-08-22T14:59:35.165Z,100331.44
2022-08-22T15:02:38.376Z,100330.63
2022-08-22T15:05:46.451Z,100324.84
2022-08-22T15:08:50.725Z,100335.31
2022-08-22T15:11:53.400Z,100336.44
2022-08-22T15:15:06.206Z,100346.13
2022-08-22T15:18:19.144Z,100325.72
2022-08-22T15:21:33.453Z,100341.69
2022-08-22T15:24:56.346Z,100335.34
2022-08-22T15:28:06.931Z,100334.22
2022-08-22T15:31:19.021Z,100322.94
2022-08-22T15:34:30.298Z,100328.72
2022-08-22T15:37:35.575Z,100325.41
2022-08-22T15:40:45.942Z,100326.25
2022-08-22T15:44:09.336Z,100325.97
2022-08-22T15:47:39.902Z,100324.34
2022-08-22T15:51:05.016Z,100330.09
2022-08-22T15:54:25.277Z,100313.59
2022-08-22T15:57:35.906Z,100324.06
2022-08-22T16:00:43.283Z,100344.19
2022-08-22T16:04:05.149Z,100345.56
2022-08-22T16:07:26.188Z,100319.69
2022-08-22T16:10:40.128Z,100337.59
2022-08-22T16:13:44.537Z,100355.78
2022-08-22T16:17:03.855Z,100364.34
2022-08-22T16:20:15.883Z,100371.25
2022-08-22T16:23:25.100Z,100363.53
2022-08-22T16:26:30.217Z,100371.28
2022-08-22T16:29:42.313Z,100359.94
2022-08-22T16:32:53.214Z,100374.25
2022-08-22T16:36:17.633Z,100383.63
2022-08-22T16:39:22.432Z,100378.09
2022-08-22T16:42:44.196Z,100354.66
2022-08-22T16:45:48.698Z,100369.28
2022-08-22T16:49:01.424Z,100370.38
2022-08-22T16:52:24.955Z,100379.19
2022-08-22T16:55:30.481Z,100376.41
2022-08-22T16:59:19.776Z,100380.81
2022-08-22T17:02:46.272Z,100389.09
2022-08-22T17:05:57.013Z,100405.84
2022-08-22T17:09:17.535Z,100424.56
2022-08-22T17:12:40.791Z,100438.06
2022-08-22T17:15:48.603Z,100427.25
2022-08-22T17:19:02.658Z,100431.38
2022-08-22T17:22:37.596Z,100441.53
2022-08-22T17:26:13.431Z,100450.03
2022-08-22T17:29:42.098Z,100440.94
2022-08-22T17:33:06.385Z,100446.97
2022-08-22T17:36:34.187Z,100432.94
2022-08-22T17:40:11.583Z,100433.75
2022-08-22T17:43:52.354Z,100440.34
2022-08-22T17:47:08.630Z,100428.47
2022-08-22T17:50:16.419Z,100444.75
2022-08-22T17:53:46.620Z,100441.72
2022-08-22T17:57:11.540Z,100439.25
2022-08-22T18:00:26.129Z,100427.66
2022-08-22T18:03:32.875Z,100432.28
2022-08-22T18:06:44.348Z,100438.06
2022-08-22T18:09:58.871Z,100442.97
2022-08-22T18:13:14.798Z,100449.81
2022-08-22T18:16:38.703Z,100463.34
2022-08-22T18:19:50.055Z,100481.22
2022-08-22T18:22:57.633Z,100478.19
2022-08-22T18:26:07.380Z,100484.84
2022-08-22T18:29:18.706Z,100479.56
2022-08-22T18:32:41.602Z,100474.31
2022-08-22T18:36:22.973Z,100519.16
2022-08-22T18:39:50.076Z,100507.28
2022-08-22T18:43:00.253Z,100498.53
2022-08-22T18:46:24.559Z,100476.53
2022-08-22T18:49:26.607Z,100473.53
2022-08-22T18:52:28.624Z,100497.44
2022-08-22T18:55:56.578Z,100558.25
2022-08-22T18:59:29.574Z,100576.69
2022-08-22T19:03:01.192Z,100572.50
2022-08-22T19:06:15.336Z,100541.22
2022-08-22T19:09:45.126Z,100568.59
2022-08-22T19:13:07.055Z,100571.84
2022-08-22T19:16:26.499Z,100574.09
2022-08-22T19:20:08.663Z,100575.97
2022-08-22T19:23:50.606Z,100560.56
2022-08-22T19:27:11.116Z,100566.34
2022-08-22T19:30:34.882Z,100547.84
2022-08-22T19:33:40.840Z,100548.72
2022-08-22T19:36:45.810Z,100542.63
2022-08-22T19:39:58.494Z,100536.00
2022-08-22T19:43:16.337Z,100529.09
2022-08-22T19:46:36.846Z,100559.97
2022-08-22T19:49:43.907Z,100578.34
2022-08-22T19:52:58.054Z,100619.28
2022-08-22T19:56:22.875Z,100647.88
2022-08-22T19:59:51.338Z,100636.31
2022-08-22T20:03:02.086Z,100590.88
2022-08-22T20:06:22.073Z,100557.16
2022-08-22T20:09:58.600Z,100542.84
2022-08-22T20:13:02.132Z,100525.94
2022-08-22T20:16:17.817Z,100503.56
2022-08-22T20:19:21.597Z,100521.06
2022-08-22T20:22:32.836Z,100558.59
2022-08-22T20:25:44.462Z,100569.75
2022-08-22T20:28:52.420Z,100585.59
2022-08-22T20:31:58.582Z,100578.63
2022-08-22T20:35:04.361Z,100565.66
2022-08-22T20:38:14.331Z,100560.63
2022-08-22T20:41:36.819Z,100546.09
2022-08-22T20:44:53.484Z,100540.97
2022-08-22T20:47:57.577Z,100527.28
2022-08-22T20:51:05.103Z,100493.47
2022-08-22T20:54:20.458Z,100509.75
2022-08-22T20:57:23.012Z,100517.41
2022-08-22T21:00:31.845Z,100519.47
2022-08-22T21:03:42.631Z,100572.31
2022-08-22T21:06:45.488Z,100588.28
2022-08-22T21:10:22.804Z,100578.56
2022-08-22T21:13:25.142Z,100572.81
2022-08-22T21:16:31.549Z,100562.78
2022-08-22T21:19:33.927Z,100533.22
2022-08-22T21:22:35.970Z,100529.16
2022-08-22T21:26:06.159Z,100523.97
2022-08-22T21:29:14.691Z,100533.69
2022-08-22T21:32:22.657Z,100539.53
2022-08-22T21:35:33.428Z,100525.47
2022-08-22T21:38:35.760Z,100507.19
2022-08-22T21:41:42.358Z,100511.84
2022-08-22T21:44:59.145Z,100524.56
2022-08-22T21:48:02.031Z,100527.50
2022-08-22T21:51:29.539Z,100542.88
2022-08-22T21:54:32.130Z,100538.47
2022-08-22T21:57:36.094Z,100541.22
2022-08-22T22:00:59.506Z,100539.22
2022-08-22T22:04:01.786Z,100515.78
2022-08-22T22:07:04.709Z,100521.53
2022-08-22T22:10:16.602Z,100517.47
2022-08-22T22:13:20.480Z,100529.25
2022-08-22T22:16:28.302Z,100533.91
2022-08-22T22:19:30.442Z,100531.41
2022-08-22T22:22:32.696Z,100535.31
2022-08-22T22:25:42.160Z,100554.19
2022-08-22T22:28:50.477Z,100554.19
2022-08-22T22:31:52.698Z,100534.59
2022-08-22T22:34:55.385Z,100541.72
2022-08-22T22:37:57.709Z,100537.00
2022-08-22T22:41:00.144Z,100554.44
2022-08-22T22:44:03.796Z,100548.53
2022-08-22T22:47:06.435Z,100562.25
2022-08-22T22:50:09.121Z,100564.44
2022-08-22T22:53:12.767Z,100568.84
2022-08-22T22:56:23.530Z,100566.59
2022-08-22T22:59:26.461Z,100568.78
2022-08-22T23:02:28.726Z,100570.41
2022-08-22T23:05:31.913Z,100578.16
2022-08-22T23:08:34.679Z,100569.59
2022-08-22T23:11:36.976Z,100566.03
2022-08-22T23:14:39.032Z,100583.66
2022-08-22T23:17:42.476Z,100584.47
2022-08-22T23:20:44.591Z,100573.75
2022-08-22T23:23:46.971Z,100565.19
2022-08-22T23:26:49.109Z,100569.00
2022-08-22T23:29:51.375Z,100575.84
2022-08-22T23:32:53.829Z,100588.03
2022-08-22T23:35:59.899Z,100587.47
2022-08-22T23:39:06.443Z,100583.31
2022-08-22T23:42:10.156Z,100586.06
2022-08-22T23:45:12.536Z,100575.16
2022-08-22T23:48:14.601Z,100573.63
2022-08-22T23:51:23.075Z,100579.50
2022-08-22T23:54:26.387Z,100570.88
2022-08-22T23:57:29.394Z,100570.47
